createdAt,value
2019-02-21T00:00:30.956Z,7.71
2019-02-21T00:01:30.894Z,7.71
2019-02-21T00:02:30.827Z,7.74
2019-02-21T00:03:30.762Z,7.69
2019-02-21T00:04:30.696Z,7.64
2019-02-21T00:05:30.631Z,7.61
2019-02-21T00:06:30.571Z,7.61
2019-02-21T00:07:30.504Z,7.60
2019-02-21T00:08:30.439Z,7.60
2019-02-21T00:09:30.370Z,7.60
2019-02-21T00:10:30.303Z,7.61
2019-02-21T00:11:30.241Z,7.55
2019-02-21T00:12:30.173Z,7.49
2019-02-21T00:13:30.117Z,7.52
2019-02-21T00:14:30.046Z,7.47
2019-02-21T00:15:29.988Z,7.50
2019-02-21T00:16:29.913Z,7.47
2019-02-21T00:17:29.848Z,7.49
2019-02-21T00:18:29.782Z,7.54
2019-02-21T00:19:29.716Z,7.54
2019-02-21T00:20:29.653Z,7.46
2019-02-21T00:21:29.586Z,7.46
2019-02-21T00:22:29.522Z,7.39
2019-02-21T00:23:29.453Z,7.40
2019-02-21T00:24:29.390Z,7.29
2019-02-21T00:25:29.323Z,7.28
2019-02-21T00:26:29.269Z,7.24
2019-02-21T00:27:29.198Z,7.18
2019-02-21T00:28:29.128Z,7.31
2019-02-21T00:29:29.063Z,7.29
2019-02-21T00:30:35.130Z,7.28
2019-02-21T00:31:28.944Z,7.24
2019-02-21T00:32:28.875Z,7.21
2019-02-21T00:33:28.808Z,7.22
2019-02-21T00:34:28.733Z,7.18
2019-02-21T00:35:28.671Z,7.25
2019-02-21T00:36:28.604Z,7.26
2019-02-21T00:37:28.542Z,7.25
2019-02-21T00:38:28.477Z,7.18
2019-02-21T00:39:28.410Z,7.16
2019-02-21T00:40:28.346Z,7.11
2019-02-21T00:41:28.275Z,7.18
2019-02-21T00:42:28.220Z,7.10
2019-02-21T00:43:28.146Z,7.16
2019-02-21T00:44:28.084Z,7.16
2019-02-21T00:45:28.016Z,7.13
2019-02-21T00:46:27.949Z,7.08
2019-02-21T00:47:27.885Z,7.15
2019-02-21T00:48:27.821Z,7.15
2019-02-21T00:49:27.754Z,7.10
2019-02-21T00:50:27.696Z,7.15
2019-02-21T00:51:27.622Z,7.13
2019-02-21T00:52:27.561Z,7.16
2019-02-21T00:53:27.493Z,7.19
2019-02-21T00:54:27.429Z,7.15
2019-02-21T00:55:27.966Z,7.13
2019-02-21T00:56:27.296Z,7.08
2019-02-21T00:57:27.237Z,7.15
2019-02-21T00:58:27.161Z,7.21
2019-02-21T00:59:27.098Z,7.24
2019-02-21T01:00:27.032Z,7.13
2019-02-21T01:01:26.972Z,7.15
2019-02-21T01:02:26.903Z,7.19
2019-02-21T01:03:26.835Z,7.18
2019-02-21T01:04:26.771Z,7.08
2019-02-21T01:05:26.703Z,7.08
2019-02-21T01:06:26.642Z,7.08
2019-02-21T01:07:26.575Z,7.04
2019-02-21T01:08:26.510Z,7.06
2019-02-21T01:09:26.444Z,7.10
2019-02-21T01:10:26.373Z,7.11
2019-02-21T01:11:26.314Z,7.18
2019-02-21T01:12:26.252Z,7.13
2019-02-21T01:13:26.188Z,7.18
2019-02-21T01:14:26.115Z,7.16
2019-02-21T01:15:26.049Z,7.16
2019-02-21T01:16:25.987Z,7.19
2019-02-21T01:17:25.922Z,7.24
2019-02-21T01:18:25.854Z,7.13
2019-02-21T01:19:25.788Z,7.16
2019-02-21T01:20:25.730Z,7.19
2019-02-21T01:21:25.655Z,7.10
2019-02-21T01:22:25.598Z,7.16
2019-02-21T01:23:25.529Z,7.11
2019-02-21T01:24:25.488Z,7.15
2019-02-21T01:25:25.398Z,7.19
2019-02-21T01:26:25.334Z,7.24
2019-02-21T01:27:25.261Z,7.22
2019-02-21T01:28:25.199Z,7.22
2019-02-21T01:29:25.133Z,7.18
2019-02-21T01:30:25.067Z,7.11
2019-02-21T01:31:25.008Z,7.15
2019-02-21T01:32:24.938Z,7.18
2019-02-21T01:33:24.872Z,7.11
2019-02-21T01:34:24.807Z,7.16
2019-02-21T01:35:24.738Z,7.16
2019-02-21T01:36:24.681Z,7.10
2019-02-21T01:37:24.610Z,7.13
2019-02-21T01:38:24.545Z,7.13
2019-02-21T01:39:24.476Z,7.16
2019-02-21T01:40:24.415Z,7.15
2019-02-21T01:41:24.351Z,7.15
2019-02-21T01:42:24.282Z,7.01
2019-02-21T01:43:24.214Z,7.06
2019-02-21T01:44:24.150Z,7.06
2019-02-21T01:45:24.085Z,7.13
2019-02-21T01:46:24.016Z,7.15
2019-02-21T01:47:23.954Z,7.04
2019-02-21T01:48:23.895Z,7.11
2019-02-21T01:49:23.824Z,7.08
2019-02-21T01:50:23.764Z,7.13
2019-02-21T01:51:23.695Z,7.13
2019-02-21T01:52:23.631Z,7.18
2019-02-21T01:53:23.563Z,7.11
2019-02-21T01:54:23.496Z,7.16
2019-02-21T01:55:23.445Z,7.16
2019-02-21T01:56:23.363Z,7.13
2019-02-21T01:57:23.298Z,7.11
2019-02-21T01:58:23.233Z,7.10
2019-02-21T01:59:23.168Z,7.13
2019-02-21T02:00:23.108Z,7.13
2019-02-21T02:01:23.040Z,7.11
2019-02-21T02:02:22.984Z,7.03
2019-02-21T02:03:22.917Z,7.03
2019-02-21T02:04:22.841Z,6.99
2019-02-21T02:05:22.774Z,7.03
2019-02-21T02:06:22.771Z,7.08
2019-02-21T02:07:22.646Z,7.15
2019-02-21T02:08:22.579Z,7.10
2019-02-21T02:09:22.521Z,7.04
2019-02-21T02:10:22.443Z,7.07
2019-02-21T02:11:22.379Z,7.00
2019-02-21T02:12:22.334Z,7.06
2019-02-21T02:13:24.851Z,7.04
2019-02-21T02:14:22.184Z,7.00
2019-02-21T02:15:22.117Z,7.04
2019-02-21T02:16:22.064Z,7.04
2019-02-21T02:17:21.987Z,7.13
2019-02-21T02:18:21.921Z,7.13
2019-02-21T02:19:21.855Z,7.16
2019-02-21T02:20:21.789Z,7.16
2019-02-21T02:21:21.725Z,7.08
2019-02-21T02:22:21.660Z,7.16
2019-02-21T02:23:21.597Z,7.15
2019-02-21T02:24:21.533Z,7.10
2019-02-21T02:25:21.462Z,7.10
2019-02-21T02:26:21.400Z,7.07
2019-02-21T02:27:21.330Z,7.00
2019-02-21T02:28:21.264Z,7.01
2019-02-21T02:29:21.200Z,7.01
2019-02-21T02:30:21.147Z,6.93
2019-02-21T02:31:23.424Z,6.93
2019-02-21T02:32:21.004Z,6.97
2019-02-21T02:33:20.941Z,7.00
2019-02-21T02:34:20.872Z,6.92
2019-02-21T02:35:20.807Z,6.91
2019-02-21T02:36:20.741Z,6.89
2019-02-21T02:37:20.677Z,6.86
2019-02-21T02:38:20.609Z,6.82
2019-02-21T02:39:20.545Z,6.85
2019-02-21T02:40:20.501Z,6.81
2019-02-21T02:41:20.410Z,6.79
2019-02-21T02:42:20.349Z,6.75
2019-02-21T02:43:20.299Z,6.85
2019-02-21T02:44:20.213Z,6.75
2019-02-21T02:45:20.152Z,6.70
2019-02-21T02:46:20.084Z,6.75
2019-02-21T02:47:20.019Z,6.60
2019-02-21T02:48:19.957Z,6.63
2019-02-21T02:49:19.904Z,6.55
2019-02-21T02:50:19.824Z,6.52
2019-02-21T02:51:19.756Z,6.56
2019-02-21T02:52:19.690Z,6.47
2019-02-21T02:53:19.628Z,6.49
2019-02-21T02:54:19.559Z,6.49
2019-02-21T02:55:19.493Z,6.45
2019-02-21T02:56:19.432Z,6.52
2019-02-21T02:57:19.362Z,6.53
2019-02-21T02:58:19.295Z,6.47
2019-02-21T02:59:19.227Z,6.46
2019-02-21T03:00:19.167Z,6.49
2019-02-21T03:01:19.102Z,6.50
2019-02-21T03:02:19.075Z,6.50
2019-02-21T03:03:18.968Z,6.45
2019-02-21T03:04:18.914Z,6.43
2019-02-21T03:05:18.832Z,6.47
2019-02-21T03:06:18.785Z,6.38
2019-02-21T03:07:18.703Z,6.45
2019-02-21T03:08:18.640Z,6.38
2019-02-21T03:09:18.572Z,6.32
2019-02-21T03:10:18.510Z,6.25
2019-02-21T03:11:18.440Z,6.34
2019-02-21T03:12:18.368Z,6.25
2019-02-21T03:13:18.324Z,6.21
2019-02-21T03:14:18.253Z,6.18
2019-02-21T03:15:18.174Z,6.16
2019-02-21T03:16:18.110Z,6.13
2019-02-21T03:17:18.048Z,6.18
2019-02-21T03:18:17.982Z,6.18
2019-02-21T03:19:17.916Z,6.19
2019-02-21T03:20:17.855Z,6.15
2019-02-21T03:21:17.788Z,6.12
2019-02-21T03:22:17.718Z,6.18
2019-02-21T03:23:17.650Z,6.00
2019-02-21T03:24:17.592Z,5.82
2019-02-21T03:25:17.521Z,5.76
2019-02-21T03:26:17.458Z,5.67
2019-02-21T03:27:17.397Z,5.67
2019-02-21T03:28:17.329Z,5.57
2019-02-21T03:29:17.264Z,5.65
2019-02-21T03:30:17.193Z,5.54
2019-02-21T03:31:17.145Z,5.52
2019-02-21T03:32:17.060Z,5.50
2019-02-21T03:33:16.993Z,5.51
2019-02-21T03:34:16.937Z,5.48
2019-02-21T03:35:16.858Z,5.58
2019-02-21T03:36:16.791Z,5.62
2019-02-21T03:37:16.729Z,5.66
2019-02-21T03:38:16.664Z,5.61
2019-02-21T03:39:16.594Z,5.72
2019-02-21T03:40:16.531Z,5.72
2019-02-21T03:41:16.463Z,5.65
2019-02-21T03:42:16.408Z,5.55
2019-02-21T03:43:16.325Z,5.72
2019-02-21T03:44:16.260Z,5.67
2019-02-21T03:45:16.193Z,5.66
2019-02-21T03:46:16.127Z,5.72
2019-02-21T03:47:16.069Z,5.59
2019-02-21T03:48:16.000Z,5.69
2019-02-21T03:49:15.947Z,5.62
2019-02-21T03:50:15.864Z,5.66
2019-02-21T03:51:15.795Z,5.75
2019-02-21T03:52:15.729Z,5.67
2019-02-21T03:53:15.671Z,5.67
2019-02-21T03:54:15.604Z,5.65
2019-02-21T03:55:15.533Z,5.69
2019-02-21T03:56:15.477Z,5.70
2019-02-21T03:57:15.399Z,5.69
2019-02-21T03:58:15.331Z,5.67
2019-02-21T03:59:15.273Z,5.72
2019-02-21T04:00:15.206Z,5.61
2019-02-21T04:01:15.142Z,5.57
2019-02-21T04:02:15.091Z,5.75
2019-02-21T04:03:15.008Z,5.67
2019-02-21T04:04:14.946Z,5.75
2019-02-21T04:05:14.870Z,5.73
2019-02-21T04:06:14.802Z,5.73
2019-02-21T04:07:14.736Z,5.70
2019-02-21T04:08:14.663Z,5.70
2019-02-21T04:09:14.602Z,5.69
2019-02-21T04:10:14.547Z,5.69
2019-02-21T04:11:14.469Z,5.62
2019-02-21T04:12:14.402Z,5.62
2019-02-21T04:13:15.310Z,5.65
2019-02-21T04:14:14.272Z,5.59
2019-02-21T04:15:14.211Z,5.62
2019-02-21T04:16:14.141Z,5.58
2019-02-21T04:17:14.082Z,5.55
2019-02-21T04:18:14.005Z,5.47
2019-02-21T04:19:13.935Z,5.47
2019-02-21T04:20:13.872Z,5.48
2019-02-21T04:21:13.808Z,5.41
2019-02-21T04:22:13.793Z,5.39
2019-02-21T04:23:13.674Z,5.36
2019-02-21T04:24:13.611Z,5.36
2019-02-21T04:25:13.540Z,5.37
2019-02-21T04:26:13.474Z,5.33
2019-02-21T04:27:13.406Z,5.33
2019-02-21T04:28:13.342Z,5.41
2019-02-21T04:29:13.272Z,5.34
2019-02-21T04:30:13.206Z,5.32
2019-02-21T04:31:13.144Z,5.19
2019-02-21T04:32:16.941Z,5.18
2019-02-21T04:33:13.008Z,5.04
2019-02-21T04:34:12.945Z,5.14
2019-02-21T04:35:12.879Z,5.09
2019-02-21T04:36:12.813Z,5.07
2019-02-21T04:37:12.743Z,5.12
2019-02-21T04:38:12.673Z,5.15
2019-02-21T04:39:12.606Z,5.19
2019-02-21T04:40:12.554Z,5.21
2019-02-21T04:41:12.482Z,5.25
2019-02-21T04:42:12.411Z,5.39
2019-02-21T04:43:12.342Z,5.39
2019-02-21T04:44:12.276Z,5.52
2019-02-21T04:45:12.210Z,5.69
2019-02-21T04:46:12.153Z,5.67
2019-02-21T04:47:12.088Z,5.73
2019-02-21T04:48:12.016Z,5.73
2019-02-21T04:49:11.950Z,5.73
2019-02-21T04:50:11.885Z,5.67
2019-02-21T04:51:11.808Z,5.75
2019-02-21T04:52:11.745Z,5.66
2019-02-21T04:53:11.678Z,5.69
2019-02-21T04:54:11.616Z,5.70
2019-02-21T04:55:11.554Z,5.61
2019-02-21T04:56:11.499Z,5.72
2019-02-21T04:57:11.411Z,5.66
2019-02-21T04:58:11.350Z,5.67
2019-02-21T04:59:11.285Z,5.59
2019-02-21T05:00:11.225Z,5.59
2019-02-21T05:01:11.141Z,5.61
2019-02-21T05:02:11.085Z,5.61
2019-02-21T05:03:11.025Z,5.52
2019-02-21T05:04:10.947Z,5.57
2019-02-21T05:05:10.879Z,5.50
2019-02-21T05:06:10.814Z,5.55
2019-02-21T05:07:10.751Z,5.51
2019-02-21T05:08:10.683Z,5.51
2019-02-21T05:09:10.614Z,5.50
2019-02-21T05:10:10.547Z,5.39
2019-02-21T05:11:10.483Z,5.40
2019-02-21T05:12:10.414Z,5.41
2019-02-21T05:13:10.350Z,5.39
2019-02-21T05:14:10.284Z,5.40
2019-02-21T05:15:10.212Z,5.39
2019-02-21T05:16:10.152Z,5.41
2019-02-21T05:17:10.083Z,5.40
2019-02-21T05:18:10.016Z,5.43
2019-02-21T05:19:09.952Z,5.43
2019-02-21T05:20:09.884Z,5.37
2019-02-21T05:21:09.821Z,5.48
2019-02-21T05:22:09.752Z,5.54
2019-02-21T05:23:09.684Z,5.54
2019-02-21T05:24:09.619Z,5.54
2019-02-21T05:25:09.555Z,5.52
2019-02-21T05:26:09.488Z,5.41
2019-02-21T05:27:09.466Z,5.40
2019-02-21T05:28:09.353Z,5.41
2019-02-21T05:29:09.280Z,5.37
2019-02-21T05:30:09.219Z,5.36
2019-02-21T05:31:09.155Z,5.37
2019-02-21T05:32:09.084Z,5.36
2019-02-21T05:33:09.019Z,5.30
2019-02-21T05:34:08.952Z,5.34
2019-02-21T05:35:08.888Z,5.29
2019-02-21T05:36:08.818Z,5.34
2019-02-21T05:37:08.754Z,5.33
2019-02-21T05:38:08.687Z,5.36
2019-02-21T05:39:08.621Z,5.27
2019-02-21T05:40:08.558Z,5.25
2019-02-21T05:41:08.487Z,5.24
2019-02-21T05:42:08.420Z,5.14
2019-02-21T05:43:08.354Z,5.18
2019-02-21T05:44:08.288Z,5.21
2019-02-21T05:45:10.760Z,5.16
2019-02-21T05:46:08.156Z,5.15
2019-02-21T05:47:08.091Z,5.16
2019-02-21T05:48:08.019Z,5.14
2019-02-21T05:49:07.956Z,5.19
2019-02-21T05:50:07.886Z,5.22
2019-02-21T05:51:07.821Z,5.22
2019-02-21T05:52:07.757Z,5.14
2019-02-21T05:53:07.689Z,5.07
2019-02-21T05:54:07.619Z,5.11
2019-02-21T05:55:07.552Z,5.03
2019-02-21T05:56:07.485Z,4.93
2019-02-21T05:57:07.422Z,4.93
2019-02-21T05:58:07.352Z,4.78
2019-02-21T05:59:07.288Z,4.91
2019-02-21T06:00:07.221Z,4.78
2019-02-21T06:01:07.165Z,4.83
2019-02-21T06:02:07.088Z,4.83
2019-02-21T06:03:07.022Z,4.91
2019-02-21T06:04:06.968Z,4.96
2019-02-21T06:05:08.823Z,4.94
2019-02-21T06:06:06.831Z,4.89
2019-02-21T06:07:09.657Z,4.88
2019-02-21T06:08:06.692Z,4.91
2019-02-21T06:09:06.620Z,4.93
2019-02-21T06:10:06.555Z,4.98
2019-02-21T06:11:06.496Z,4.97
2019-02-21T06:12:06.426Z,4.97
2019-02-21T06:13:06.368Z,4.93
2019-02-21T06:14:06.300Z,4.94
2019-02-21T06:15:06.222Z,5.04
2019-02-21T06:16:06.153Z,4.98
2019-02-21T06:17:06.085Z,5.06
2019-02-21T06:18:06.017Z,5.11
2019-02-21T06:19:05.951Z,5.09
2019-02-21T06:20:05.881Z,5.06
2019-02-21T06:21:05.839Z,5.07
2019-02-21T06:22:10.469Z,5.09
2019-02-21T06:23:05.684Z,5.07
2019-02-21T06:24:05.616Z,5.03
2019-02-21T06:25:05.556Z,5.04
2019-02-21T06:26:05.491Z,5.06
2019-02-21T06:27:05.417Z,5.07
2019-02-21T06:28:05.351Z,5.07
2019-02-21T06:29:05.284Z,5.06
2019-02-21T06:30:05.226Z,5.09
2019-02-21T06:31:05.160Z,5.11
2019-02-21T06:32:13.776Z,5.11
2019-02-21T06:33:05.581Z,5.18
2019-02-21T06:34:04.951Z,5.16
2019-02-21T06:35:04.881Z,5.25
2019-02-21T06:36:04.818Z,5.24
2019-02-21T06:37:04.749Z,5.24
2019-02-21T06:38:04.699Z,5.27
2019-02-21T06:39:04.616Z,5.25
2019-02-21T06:40:04.549Z,5.25
2019-02-21T06:41:04.480Z,5.24
2019-02-21T06:42:04.415Z,5.25
2019-02-21T06:43:04.350Z,5.25
2019-02-21T06:44:04.280Z,5.27
2019-02-21T06:45:04.227Z,5.25
2019-02-21T06:46:04.153Z,5.27
2019-02-21T06:47:04.083Z,5.19
2019-02-21T06:48:04.017Z,5.24
2019-02-21T06:49:03.949Z,5.21
2019-02-21T06:50:03.879Z,5.25
2019-02-21T06:51:03.811Z,5.25
2019-02-21T06:52:03.747Z,5.24
2019-02-21T06:53:03.697Z,5.34
2019-02-21T06:54:03.619Z,5.37
2019-02-21T06:55:03.558Z,5.36
2019-02-21T06:56:03.486Z,5.34
2019-02-21T06:57:03.421Z,5.40
2019-02-21T06:58:03.349Z,5.47
2019-02-21T06:59:03.282Z,5.43
2019-02-21T07:00:03.261Z,5.40
2019-02-21T07:01:03.154Z,5.51
2019-02-21T07:02:03.094Z,5.50
2019-02-21T07:03:03.029Z,5.54
2019-02-21T07:04:02.949Z,5.55
2019-02-21T07:05:02.883Z,5.48
2019-02-21T07:06:02.816Z,5.52
2019-02-21T07:07:02.755Z,5.52
2019-02-21T07:08:02.690Z,5.57
2019-02-21T07:09:02.615Z,5.54
2019-02-21T07:10:02.566Z,5.59
2019-02-21T07:11:06.288Z,5.66
2019-02-21T07:12:02.417Z,5.65
2019-02-21T07:13:02.350Z,5.62
2019-02-21T07:14:02.283Z,5.73
2019-02-21T07:15:02.215Z,5.70
2019-02-21T07:16:02.146Z,5.77
2019-02-21T07:17:02.083Z,5.82
2019-02-21T07:18:02.024Z,5.84
2019-02-21T07:19:01.950Z,5.84
2019-02-21T07:20:01.885Z,5.93
2019-02-21T07:21:01.819Z,5.95
2019-02-21T07:22:01.769Z,5.93
2019-02-21T07:23:01.682Z,6.05
2019-02-21T07:24:01.619Z,5.94
2019-02-21T07:25:01.552Z,6.06
2019-02-21T07:26:01.486Z,6.19
2019-02-21T07:27:01.417Z,6.16
2019-02-21T07:28:11.165Z,6.24
2019-02-21T07:29:01.284Z,6.25
2019-02-21T07:30:01.218Z,6.32
2019-02-21T07:31:01.154Z,6.37
2019-02-21T07:32:01.087Z,6.45
2019-02-21T07:33:01.029Z,6.37
2019-02-21T07:34:01.763Z,6.42
2019-02-21T07:35:00.889Z,6.45
2019-02-21T07:36:00.831Z,6.49
2019-02-21T07:37:00.754Z,6.56
2019-02-21T07:38:00.691Z,6.61
2019-02-21T07:39:13.621Z,6.68
2019-02-21T07:40:00.564Z,6.60
2019-02-21T07:41:00.599Z,6.63
2019-02-21T07:42:00.423Z,6.60
2019-02-21T07:43:00.361Z,6.61
2019-02-21T07:44:11.373Z,6.71
2019-02-21T07:45:00.447Z,6.78
2019-02-21T07:46:00.161Z,6.78
2019-02-21T07:47:00.109Z,6.83
2019-02-21T07:48:00.033Z,6.85
2019-02-21T07:48:59.963Z,6.83
2019-02-21T07:49:59.906Z,6.93
2019-02-21T07:50:59.829Z,6.83
2019-02-21T07:51:59.764Z,6.96
2019-02-21T07:53:02.352Z,6.97
2019-02-21T07:53:59.632Z,7.04
2019-02-21T07:55:02.133Z,7.07
2019-02-21T07:55:59.500Z,7.06
2019-02-21T07:57:01.789Z,7.06
2019-02-21T07:57:59.363Z,7.16
2019-02-21T07:58:59.298Z,7.15
2019-02-21T07:59:59.239Z,7.19
2019-02-21T08:00:59.176Z,7.19
2019-02-21T08:01:59.112Z,7.18
2019-02-21T08:02:59.038Z,7.22
2019-02-21T08:03:58.971Z,7.15
2019-02-21T08:04:58.958Z,7.33
2019-02-21T08:05:58.859Z,7.39
2019-02-21T08:06:58.789Z,7.40
2019-02-21T08:07:58.706Z,7.42
2019-02-21T08:08:58.639Z,7.44
2019-02-21T08:09:58.575Z,7.60
2019-02-21T08:10:58.509Z,7.61
2019-02-21T08:11:58.453Z,7.69
2019-02-21T08:12:58.383Z,7.66
2019-02-21T08:13:58.312Z,7.68
2019-02-21T08:14:58.248Z,7.71
2019-02-21T08:15:58.180Z,7.71
2019-02-21T08:16:58.116Z,7.58
2019-02-21T08:17:58.051Z,7.66
2019-02-21T08:18:57.980Z,7.73
2019-02-21T08:20:07.856Z,7.83
2019-02-21T08:20:57.857Z,7.64
2019-02-21T08:22:00.066Z,7.78
2019-02-21T08:22:57.729Z,7.71
2019-02-21T08:23:59.283Z,7.84
2019-02-21T08:24:57.591Z,7.88
2019-02-21T08:25:57.528Z,7.84
2019-02-21T08:26:57.462Z,7.91
2019-02-21T08:27:57.399Z,7.78
2019-02-21T08:28:57.330Z,7.88
2019-02-21T08:29:57.294Z,7.88
2019-02-21T08:30:58.105Z,7.99
2019-02-21T08:31:57.129Z,8.05
2019-02-21T08:32:57.065Z,8.04
2019-02-21T08:33:58.759Z,8.14
2019-02-21T08:34:56.930Z,8.09
2019-02-21T08:35:57.909Z,8.12
2019-02-21T08:36:56.807Z,8.16
2019-02-21T08:37:56.807Z,8.23
2019-02-21T08:38:56.675Z,8.26
2019-02-21T08:39:56.608Z,8.32
2019-02-21T08:40:57.279Z,8.24
2019-02-21T08:41:56.478Z,8.10
2019-02-21T08:42:56.417Z,8.21
2019-02-21T08:43:57.461Z,8.23
2019-02-21T08:44:56.284Z,8.21
2019-02-21T08:45:57.590Z,8.35
2019-02-21T08:46:56.151Z,8.31
2019-02-21T08:47:56.085Z,8.46
2019-02-21T08:48:56.019Z,8.59
2019-02-21T08:49:55.962Z,8.56
2019-02-21T08:50:55.951Z,8.57
2019-02-21T08:51:55.850Z,8.67
2019-02-21T08:52:55.761Z,8.74
2019-02-21T08:53:55.696Z,8.80
2019-02-21T08:55:00.101Z,8.93
2019-02-21T08:55:56.101Z,8.98
2019-02-21T08:56:55.505Z,9.06
2019-02-21T08:57:55.436Z,9.06
2019-02-21T08:58:55.369Z,9.18
2019-02-21T08:59:55.308Z,9.19
2019-02-21T09:00:55.241Z,9.19
2019-02-21T09:01:55.178Z,9.27
2019-02-21T09:02:55.109Z,9.32
2019-02-21T09:03:55.046Z,9.37
2019-02-21T09:04:54.993Z,9.37
2019-02-21T09:05:54.922Z,9.32
2019-02-21T09:06:54.850Z,9.34
2019-02-21T09:07:54.784Z,9.37
2019-02-21T09:08:54.723Z,9.27
2019-02-21T09:09:54.661Z,9.24
2019-02-21T09:10:54.595Z,9.15
2019-02-21T09:11:54.526Z,9.12
2019-02-21T09:12:54.461Z,9.18
2019-02-21T09:13:55.823Z,9.09
2019-02-21T09:14:54.340Z,9.09
2019-02-21T09:15:55.893Z,9.09
2019-02-21T09:16:54.205Z,9.16
2019-02-21T09:17:54.585Z,9.26
2019-02-21T09:18:54.073Z,9.27
2019-02-21T09:19:54.014Z,9.41
2019-02-21T09:20:53.949Z,9.40
2019-02-21T09:21:53.888Z,9.40
2019-02-21T09:22:53.822Z,9.42
2019-02-21T09:23:56.467Z,9.45
2019-02-21T09:24:53.698Z,9.50
2019-02-21T09:25:53.633Z,9.34
2019-02-21T09:26:53.564Z,9.34
2019-02-21T09:27:53.499Z,9.40
2019-02-21T09:28:53.434Z,9.29
2019-02-21T09:29:53.370Z,9.30
2019-02-21T09:30:53.305Z,9.22
2019-02-21T09:31:53.239Z,9.30
2019-02-21T09:32:53.189Z,9.37
2019-02-21T09:33:53.110Z,9.37
2019-02-21T09:34:53.055Z,9.41
2019-02-21T09:35:52.979Z,9.48
2019-02-21T09:36:52.917Z,9.42
2019-02-21T09:37:52.868Z,9.51
2019-02-21T09:38:52.795Z,9.41
2019-02-21T09:39:52.723Z,9.55
2019-02-21T09:40:52.664Z,9.54
2019-02-21T09:41:52.593Z,9.60
2019-02-21T09:42:52.533Z,9.65
2019-02-21T09:43:52.465Z,9.60
2019-02-21T09:44:52.405Z,9.72
2019-02-21T09:45:52.338Z,9.80
2019-02-21T09:46:52.272Z,9.84
2019-02-21T09:47:52.210Z,9.91
2019-02-21T09:48:52.174Z,9.88
2019-02-21T09:49:52.081Z,9.85
2019-02-21T09:50:52.016Z,9.98
2019-02-21T09:51:51.955Z,10.01
2019-02-21T09:52:51.894Z,9.99
2019-02-21T09:53:51.825Z,9.99
2019-02-21T09:54:51.763Z,9.88
2019-02-21T09:55:51.696Z,9.83
2019-02-21T09:56:53.073Z,9.80
2019-02-21T09:57:51.581Z,9.77
2019-02-21T09:58:51.500Z,9.87
2019-02-21T09:59:51.438Z,9.93
2019-02-21T10:00:51.381Z,10.01
2019-02-21T10:01:51.308Z,10.02
2019-02-21T10:02:54.306Z,10.01
2019-02-21T10:03:51.181Z,9.91
2019-02-21T10:04:51.116Z,9.99
2019-02-21T10:05:51.055Z,10.01
2019-02-21T10:06:50.987Z,10.06
2019-02-21T10:07:50.922Z,9.99
2019-02-21T10:08:50.856Z,9.99
2019-02-21T10:09:50.797Z,9.99
2019-02-21T10:10:50.731Z,10.08
2019-02-21T10:11:50.665Z,10.14
2019-02-21T10:12:50.604Z,10.12
2019-02-21T10:13:50.540Z,10.12
2019-02-21T10:14:50.476Z,10.09
2019-02-21T10:15:50.540Z,10.23
2019-02-21T10:16:50.365Z,10.21
2019-02-21T10:17:50.975Z,10.31
2019-02-21T10:18:50.255Z,10.41
2019-02-21T10:19:50.162Z,10.43
2019-02-21T10:20:50.089Z,10.41
2019-02-21T10:21:50.026Z,10.45
2019-02-21T10:22:49.961Z,10.45
2019-02-21T10:23:49.897Z,10.54
2019-02-21T10:24:50.284Z,10.55
2019-02-21T10:25:49.771Z,10.60
2019-02-21T10:26:49.708Z,10.70
2019-02-21T10:27:49.645Z,10.78
2019-02-21T10:28:49.580Z,10.79
2019-02-21T10:29:49.515Z,10.86
2019-02-21T10:30:49.450Z,10.87
2019-02-21T10:31:49.402Z,10.98
2019-02-21T10:32:49.332Z,11.04
2019-02-21T10:33:49.270Z,11.03
2019-02-21T10:34:49.201Z,11.04
2019-02-21T10:35:49.132Z,11.03
2019-02-21T10:36:49.065Z,11.00
2019-02-21T10:37:49.002Z,11.00
2019-02-21T10:38:48.940Z,11.03
2019-02-21T10:39:48.875Z,11.09
2019-02-21T10:40:48.813Z,11.15
2019-02-21T10:41:48.822Z,11.13
2019-02-21T10:42:48.683Z,11.30
2019-02-21T10:43:48.623Z,11.43
2019-02-21T10:44:48.558Z,11.48
2019-02-21T10:45:48.495Z,11.54
2019-02-21T10:46:48.441Z,11.52
2019-02-21T10:47:48.366Z,11.56
2019-02-21T10:48:48.302Z,11.46
2019-02-21T10:49:48.237Z,11.51
2019-02-21T10:50:48.174Z,11.56
2019-02-21T10:51:48.115Z,11.51
2019-02-21T10:52:48.050Z,11.59
2019-02-21T10:53:47.986Z,11.76
2019-02-21T10:54:47.923Z,11.80
2019-02-21T10:55:48.152Z,11.84
2019-02-21T10:56:47.799Z,11.96
2019-02-21T10:57:47.730Z,11.87
2019-02-21T10:58:47.666Z,11.91
2019-02-21T10:59:47.608Z,11.74
2019-02-21T11:00:47.548Z,11.96
2019-02-21T11:01:47.479Z,11.91
2019-02-21T11:02:47.427Z,12.03
2019-02-21T11:03:47.346Z,11.95
2019-02-21T11:04:54.946Z,12.00
2019-02-21T11:05:47.224Z,11.84
2019-02-21T11:06:47.164Z,11.97
2019-02-21T11:07:47.095Z,12.15
2019-02-21T11:08:47.076Z,11.97
2019-02-21T11:09:46.971Z,11.88
2019-02-21T11:10:46.907Z,12.05
2019-02-21T11:11:46.846Z,12.14
2019-02-21T11:12:46.779Z,12.28
2019-02-21T11:13:46.720Z,12.35
2019-02-21T11:14:47.802Z,12.32
2019-02-21T11:15:46.595Z,12.44
2019-02-21T11:16:46.533Z,12.50
2019-02-21T11:17:46.469Z,12.48
2019-02-21T11:18:46.405Z,12.51
2019-02-21T11:19:46.349Z,12.46
2019-02-21T11:20:46.290Z,12.43
2019-02-21T11:21:46.216Z,12.46
2019-02-21T11:22:46.163Z,12.51
2019-02-21T11:23:46.095Z,12.59
2019-02-21T11:24:46.044Z,12.66
2019-02-21T11:25:45.960Z,12.72
2019-02-21T11:26:45.899Z,12.69
2019-02-21T11:27:45.845Z,12.54
2019-02-21T11:28:47.252Z,12.29
2019-02-21T11:29:45.712Z,12.35
2019-02-21T11:30:45.644Z,12.40
2019-02-21T11:31:45.584Z,12.47
2019-02-21T11:32:45.527Z,12.54
2019-02-21T11:33:45.460Z,12.61
2019-02-21T11:34:45.415Z,12.72
2019-02-21T11:35:45.336Z,12.83
2019-02-21T11:36:45.272Z,12.81
2019-02-21T11:37:47.160Z,12.72
2019-02-21T11:38:45.189Z,12.59
2019-02-21T11:39:45.092Z,12.58
2019-02-21T11:40:45.021Z,12.53
2019-02-21T11:41:44.965Z,12.63
2019-02-21T11:42:44.898Z,12.66
2019-02-21T11:43:44.839Z,12.69
2019-02-21T11:44:44.771Z,12.68
2019-02-21T11:45:53.398Z,12.66
2019-02-21T11:46:44.661Z,12.61
2019-02-21T11:47:44.582Z,12.65
2019-02-21T11:48:44.518Z,12.66
2019-02-21T11:49:44.470Z,12.76
2019-02-21T11:50:44.394Z,12.83
2019-02-21T11:51:44.330Z,12.80
2019-02-21T11:52:44.269Z,13.02
2019-02-21T11:53:44.206Z,13.02
2019-02-21T11:54:44.142Z,13.06
2019-02-21T11:55:44.081Z,13.16
2019-02-21T11:56:44.023Z,13.20
2019-02-21T11:57:43.962Z,13.19
2019-02-21T11:58:43.894Z,13.20
2019-02-21T11:59:43.840Z,13.11
2019-02-21T12:00:43.768Z,13.04
2019-02-21T12:01:43.701Z,13.02
2019-02-21T12:02:43.647Z,13.01
2019-02-21T12:03:43.588Z,12.96
2019-02-21T12:04:43.517Z,12.96
2019-02-21T12:05:43.454Z,12.86
2019-02-21T12:06:43.475Z,12.77
2019-02-21T12:07:43.329Z,12.79
2019-02-21T12:08:43.270Z,12.72
2019-02-21T12:09:43.206Z,12.80
2019-02-21T12:10:43.152Z,12.79
2019-02-21T12:11:43.083Z,12.81
2019-02-21T12:12:43.014Z,12.87
2019-02-21T12:13:42.970Z,12.93
2019-02-21T12:14:42.892Z,12.84
2019-02-21T12:15:42.855Z,12.80
2019-02-21T12:16:42.768Z,12.80
2019-02-21T12:17:43.272Z,12.88
2019-02-21T12:18:42.638Z,12.91
2019-02-21T12:19:42.578Z,13.05
2019-02-21T12:20:42.526Z,12.98
2019-02-21T12:21:42.453Z,12.87
2019-02-21T12:22:42.391Z,12.90
2019-02-21T12:23:42.325Z,12.90
2019-02-21T12:24:42.267Z,12.95
2019-02-21T12:25:42.205Z,12.96
2019-02-21T12:26:42.141Z,12.99
2019-02-21T12:27:42.077Z,13.05
2019-02-21T12:28:42.019Z,12.96
2019-02-21T12:29:41.953Z,13.02
2019-02-21T12:30:41.892Z,13.02
2019-02-21T12:31:41.831Z,13.02
2019-02-21T12:32:41.805Z,13.08
2019-02-21T12:33:41.715Z,13.13
2019-02-21T12:34:41.671Z,13.08
2019-02-21T12:35:41.607Z,13.16
2019-02-21T12:36:41.518Z,12.99
2019-02-21T12:37:41.465Z,13.19
2019-02-21T12:38:41.411Z,13.19
2019-02-21T12:39:41.334Z,13.29
2019-02-21T12:40:41.275Z,13.24
2019-02-21T12:41:41.206Z,13.38
2019-02-21T12:42:41.157Z,13.45
2019-02-21T12:43:41.077Z,13.39
2019-02-21T12:44:41.016Z,13.40
2019-02-21T12:45:40.954Z,13.42
2019-02-21T12:46:40.902Z,13.36
2019-02-21T12:47:49.525Z,13.35
2019-02-21T12:48:40.765Z,13.26
2019-02-21T12:49:40.702Z,13.36
2019-02-21T12:50:44.369Z,13.40
2019-02-21T12:51:40.575Z,13.51
2019-02-21T12:52:40.517Z,13.61
2019-02-21T12:53:40.456Z,13.64
2019-02-21T12:54:40.396Z,13.75
2019-02-21T12:55:40.328Z,13.79
2019-02-21T12:56:40.265Z,13.83
2019-02-21T12:57:40.205Z,13.83
2019-02-21T12:58:40.157Z,13.85
2019-02-21T12:59:40.088Z,13.76
2019-02-21T13:00:40.019Z,13.72
2019-02-21T13:01:39.956Z,13.76
2019-02-21T13:02:39.892Z,13.75
2019-02-21T13:03:39.829Z,13.73
2019-02-21T13:04:39.769Z,13.75
2019-02-21T13:05:41.307Z,13.83
2019-02-21T13:06:39.642Z,13.88
2019-02-21T13:07:39.592Z,13.79
2019-02-21T13:08:39.515Z,13.85
2019-02-21T13:09:39.478Z,13.83
2019-02-21T13:10:39.397Z,13.90
2019-02-21T13:11:39.334Z,13.96